createdAt,value
2017-02-17T00:00:36.240Z,0
2017-02-17T00:01:16.705Z,0
2017-02-17T00:01:57.187Z,0
2017-02-17T00:02:37.659Z,0
2017-02-17T00:03:18.147Z,0
2017-02-17T00:03:58.607Z,0
2017-02-17T00:04:39.084Z,0
2017-02-17T00:05:20.506Z,0
2017-02-17T00:06:00.991Z,0
2017-02-17T00:06:41.549Z,0
2017-02-17T00:07:22.005Z,0
2017-02-17T00:08:02.471Z,0
2017-02-17T00:08:43.604Z,0
2017-02-17T00:09:24.080Z,0
2017-02-17T00:10:04.594Z,0
2017-02-17T00:10:45.042Z,0
2017-02-17T00:11:25.532Z,0
2017-02-17T00:12:07.008Z,0
2017-02-17T00:12:47.492Z,0
2017-02-17T00:13:29.508Z,0
2017-02-17T00:14:11.501Z,0
2017-02-17T00:14:52.015Z,0
2017-02-17T00:15:33.843Z,0
2017-02-17T00:16:17.946Z,0
2017-02-17T00:16:58.395Z,0
2017-02-17T00:17:39.838Z,0
2017-02-17T00:18:20.928Z,0
2017-02-17T00:19:03.331Z,0
2017-02-17T00:19:43.797Z,0
2017-02-17T00:20:25.116Z,0
2017-02-17T00:21:05.592Z,0
2017-02-17T00:21:46.076Z,0
2017-02-17T00:22:26.572Z,0
2017-02-17T00:23:07.022Z,0
2017-02-17T00:23:48.418Z,0
2017-02-17T00:24:28.890Z,0
2017-02-17T00:25:09.362Z,0
2017-02-17T00:25:49.989Z,0
2017-02-17T00:26:30.284Z,0
2017-02-17T00:27:10.741Z,0
2017-02-17T00:27:51.735Z,0
2017-02-17T00:28:32.204Z,0
2017-02-17T00:29:12.734Z,0
2017-02-17T00:29:53.249Z,0
2017-02-17T00:30:34.327Z,0
2017-02-17T00:31:14.799Z,0
2017-02-17T00:31:55.305Z,0
2017-02-17T00:32:35.782Z,0
2017-02-17T00:33:16.253Z,0
2017-02-17T00:33:56.773Z,0
2017-02-17T00:34:37.244Z,0
2017-02-17T00:35:19.514Z,0
2017-02-17T00:35:59.986Z,0
2017-02-17T00:36:41.317Z,0
2017-02-17T00:37:21.809Z,0
2017-02-17T00:38:02.332Z,0
2017-02-17T00:38:42.763Z,0
2017-02-17T00:39:23.945Z,0
2017-02-17T00:40:04.414Z,0
2017-02-17T00:40:44.883Z,0
2017-02-17T00:41:25.389Z,0
2017-02-17T00:42:05.882Z,0
2017-02-17T00:42:46.365Z,0
2017-02-17T00:43:27.822Z,0
2017-02-17T00:44:09.928Z,0
2017-02-17T00:44:51.134Z,0
2017-02-17T00:45:32.168Z,0
2017-02-17T00:46:14.816Z,0
2017-02-17T00:46:55.851Z,0
2017-02-17T00:47:37.244Z,0
2017-02-17T00:48:19.339Z,0
2017-02-17T00:48:59.833Z,0
2017-02-17T00:49:40.304Z,0
2017-02-17T00:50:20.760Z,0
2017-02-17T00:51:01.227Z,0
2017-02-17T00:51:41.704Z,0
2017-02-17T00:52:22.840Z,0
2017-02-17T00:53:05.004Z,0
2017-02-17T00:53:45.995Z,0
2017-02-17T00:54:26.480Z,0
2017-02-17T00:55:07.849Z,0
2017-02-17T00:55:48.303Z,0
2017-02-17T00:56:29.724Z,0
2017-02-17T00:57:10.831Z,0
2017-02-17T00:57:51.337Z,0
2017-02-17T00:58:31.817Z,0
2017-02-17T00:59:13.833Z,0
2017-02-17T00:59:54.313Z,0
2017-02-17T01:00:36.342Z,0
2017-02-17T01:01:17.723Z,0
2017-02-17T01:01:58.221Z,0
2017-02-17T01:02:38.681Z,0
2017-02-17T01:03:19.840Z,0
2017-02-17T01:04:00.987Z,0
2017-02-17T01:04:41.499Z,0
2017-02-17T01:05:23.650Z,0
2017-02-17T01:06:04.148Z,0
2017-02-17T01:06:47.340Z,0
2017-02-17T01:07:27.811Z,0
2017-02-17T01:08:08.287Z,0
2017-02-17T01:08:49.409Z,0
2017-02-17T01:09:29.916Z,0
2017-02-17T01:10:11.910Z,0
2017-02-17T01:10:52.367Z,0
2017-02-17T01:11:33.733Z,0
2017-02-17T01:12:14.918Z,0
2017-02-17T01:12:56.015Z,0
2017-02-17T01:13:37.007Z,0
2017-02-17T01:14:17.501Z,0
2017-02-17T01:14:58.707Z,0
2017-02-17T01:15:39.220Z,0
2017-02-17T01:16:20.420Z,0
2017-02-17T01:17:03.420Z,0
2017-02-17T01:17:45.316Z,0
2017-02-17T01:18:27.424Z,0
2017-02-17T01:19:08.437Z,0
2017-02-17T01:19:50.522Z,0
2017-02-17T01:20:31.829Z,0
2017-02-17T01:21:14.013Z,0
2017-02-17T01:21:56.823Z,0
2017-02-17T01:22:37.920Z,0
2017-02-17T01:23:20.330Z,0
2017-02-17T01:24:03.315Z,0
2017-02-17T01:24:44.331Z,0
2017-02-17T01:25:27.335Z,0
2017-02-17T01:26:07.816Z,0
2017-02-17T01:26:48.287Z,0
2017-02-17T01:27:29.404Z,0
2017-02-17T01:28:09.876Z,0
2017-02-17T01:28:52.111Z,0
2017-02-17T01:29:32.612Z,0
2017-02-17T01:30:17.401Z,0
2017-02-17T01:30:57.915Z,0
2017-02-17T01:31:38.970Z,0
2017-02-17T01:32:19.381Z,0
2017-02-17T01:33:02.333Z,0
2017-02-17T01:33:44.431Z,0
2017-02-17T01:34:25.819Z,0
2017-02-17T01:35:08.915Z,0
2017-02-17T01:35:51.215Z,0
2017-02-17T01:36:34.960Z,0
2017-02-17T01:37:15.453Z,0
2017-02-17T01:37:56.507Z,0
2017-02-17T01:38:37.824Z,0
2017-02-17T01:39:18.332Z,0
2017-02-17T01:39:58.839Z,0
2017-02-17T01:40:40.132Z,0
2017-02-17T01:41:20.599Z,0
2017-02-17T01:42:02.942Z,0
2017-02-17T01:42:43.425Z,0
2017-02-17T01:43:23.941Z,0
2017-02-17T01:44:06.238Z,0
2017-02-17T01:44:46.708Z,0
2017-02-17T01:45:27.196Z,0
2017-02-17T01:46:08.436Z,0
2017-02-17T01:46:49.633Z,0
2017-02-17T01:47:30.110Z,0
2017-02-17T01:48:11.998Z,0
2017-02-17T01:48:53.419Z,0
2017-02-17T01:49:34.478Z,0
2017-02-17T01:50:14.948Z,0
2017-02-17T01:50:55.909Z,0
2017-02-17T01:51:36.434Z,0
2017-02-17T01:52:16.922Z,0
2017-02-17T01:52:57.434Z,0
2017-02-17T01:53:38.496Z,0
2017-02-17T01:54:18.975Z,0
2017-02-17T01:55:00.930Z,0
2017-02-17T01:55:42.325Z,0
2017-02-17T01:56:23.623Z,0
2017-02-17T01:57:04.126Z,0
2017-02-17T01:57:45.500Z,0
2017-02-17T01:58:25.965Z,0
2017-02-17T01:59:06.495Z,0
2017-02-17T01:59:46.995Z,0
2017-02-17T02:00:27.441Z,0
2017-02-17T02:01:07.898Z,0
2017-02-17T02:01:48.382Z,0
2017-02-17T02:02:28.842Z,0
2017-02-17T02:03:09.322Z,0
2017-02-17T02:03:49.818Z,0
2017-02-17T02:04:30.240Z,0
2017-02-17T02:05:10.720Z,0
2017-02-17T02:05:51.183Z,0
2017-02-17T02:06:31.636Z,0
2017-02-17T02:07:12.160Z,0
2017-02-17T02:07:52.607Z,0
2017-02-17T02:08:33.112Z,0
2017-02-17T02:09:13.581Z,0
2017-02-17T02:09:54.062Z,0
2017-02-17T02:10:34.530Z,0
2017-02-17T02:11:14.976Z,0
2017-02-17T02:11:55.504Z,0
2017-02-17T02:12:35.978Z,0
2017-02-17T02:13:16.448Z,0
2017-02-17T02:13:56.957Z,0
2017-02-17T02:14:37.440Z,0
2017-02-17T02:15:17.928Z,0
2017-02-17T02:15:58.398Z,0
2017-02-17T02:16:38.896Z,0
2017-02-17T02:17:19.398Z,0
2017-02-17T02:17:59.879Z,0
2017-02-17T02:18:40.333Z,0
2017-02-17T02:19:22.315Z,0
2017-02-17T02:20:02.830Z,0
2017-02-17T02:20:43.292Z,0
2017-02-17T02:21:23.753Z,0
2017-02-17T02:22:04.284Z,0
2017-02-17T02:22:44.750Z,0
2017-02-17T02:23:25.215Z,0
2017-02-17T02:24:05.717Z,0
2017-02-17T02:24:46.224Z,0
2017-02-17T02:25:26.696Z,0
2017-02-17T02:26:07.149Z,0
2017-02-17T02:26:47.643Z,0
2017-02-17T02:27:28.145Z,0
2017-02-17T02:28:08.623Z,0
2017-02-17T02:28:49.103Z,0
2017-02-17T02:29:29.599Z,0
2017-02-17T02:30:10.030Z,0
2017-02-17T02:30:50.534Z,0
2017-02-17T02:31:31.011Z,0
2017-02-17T02:32:11.517Z,0
2017-02-17T02:32:51.963Z,0
2017-02-17T02:33:32.486Z,0
2017-02-17T02:34:12.981Z,0
2017-02-17T02:34:53.445Z,0
2017-02-17T02:35:33.933Z,0
2017-02-17T02:36:14.393Z,0
2017-02-17T02:36:54.869Z,0
2017-02-17T02:37:35.350Z,0
2017-02-17T02:38:15.831Z,0
2017-02-17T02:38:56.326Z,0
2017-02-17T02:39:36.789Z,0
2017-02-17T02:40:17.291Z,0
2017-02-17T02:40:57.767Z,0
2017-02-17T02:41:38.219Z,0
2017-02-17T02:42:18.687Z,0
2017-02-17T02:42:59.148Z,0
2017-02-17T02:43:39.651Z,0
2017-02-17T02:44:20.136Z,0
2017-02-17T02:45:00.620Z,0
2017-02-17T02:45:41.091Z,0
2017-02-17T02:46:21.541Z,0
2017-02-17T02:47:02.028Z,0
2017-02-17T02:47:42.494Z,0
2017-02-17T02:48:22.946Z,0
2017-02-17T02:49:03.476Z,0
2017-02-17T02:49:43.941Z,0
2017-02-17T02:50:24.437Z,0
2017-02-17T02:51:05.604Z,0
2017-02-17T02:51:47.026Z,0
2017-02-17T02:52:27.475Z,0
2017-02-17T02:53:07.949Z,0
2017-02-17T02:53:48.416Z,0
2017-02-17T02:54:28.895Z,0
2017-02-17T02:55:09.392Z,0
2017-02-17T02:55:50.716Z,0
2017-02-17T02:56:31.920Z,0
2017-02-17T02:57:12.440Z,0
2017-02-17T02:57:52.911Z,0
2017-02-17T02:58:33.394Z,0
2017-02-17T02:59:13.840Z,0
2017-02-17T02:59:54.324Z,0
2017-02-17T03:00:35.706Z,0
2017-02-17T03:01:16.185Z,0
2017-02-17T03:01:56.653Z,0
2017-02-17T03:02:37.139Z,0
2017-02-17T03:03:18.995Z,0
2017-02-17T03:03:59.463Z,0
2017-02-17T03:04:39.932Z,0
2017-02-17T03:05:20.420Z,0
2017-02-17T03:06:01.736Z,0
2017-02-17T03:06:42.244Z,0
2017-02-17T03:07:22.713Z,0
2017-02-17T03:08:03.213Z,0
2017-02-17T03:08:45.351Z,0
2017-02-17T03:09:26.498Z,0
2017-02-17T03:10:06.987Z,0
2017-02-17T03:10:48.412Z,0
2017-02-17T03:11:28.899Z,0
2017-02-17T03:12:10.004Z,0
2017-02-17T03:12:52.937Z,0
2017-02-17T03:13:37.000Z,0
2017-02-17T03:14:18.337Z,0
2017-02-17T03:15:04.625Z,0
2017-02-17T03:15:47.948Z,0
2017-02-17T03:16:29.946Z,0
2017-02-17T03:17:11.909Z,0
2017-02-17T03:17:53.130Z,0
2017-02-17T03:18:34.920Z,0
2017-02-17T03:19:16.139Z,0
2017-02-17T03:19:56.616Z,0
2017-02-17T03:20:40.521Z,0
2017-02-17T03:21:20.984Z,0
2017-02-17T03:22:01.477Z,0
2017-02-17T03:22:43.333Z,0
2017-02-17T03:23:25.654Z,0
2017-02-17T03:24:07.013Z,0
2017-02-17T03:24:48.408Z,0
2017-02-17T03:25:29.422Z,0
2017-02-17T03:26:11.622Z,0
2017-02-17T03:26:56.322Z,0
2017-02-17T03:27:37.413Z,0
2017-02-17T03:28:18.626Z,0
2017-02-17T03:29:00.630Z,0
2017-02-17T03:29:42.009Z,0
2017-02-17T03:30:23.131Z,0
2017-02-17T03:31:03.616Z,0
2017-02-17T03:31:44.099Z,0
2017-02-17T03:32:24.604Z,0
2017-02-17T03:33:05.064Z,0
2017-02-17T03:33:45.541Z,0
2017-02-17T03:34:27.339Z,0
2017-02-17T03:35:07.783Z,0
2017-02-17T03:35:48.932Z,0
2017-02-17T03:36:30.322Z,0
2017-02-17T03:37:12.399Z,0
2017-02-17T03:37:53.911Z,0
2017-02-17T03:38:34.420Z,0
2017-02-17T03:39:15.839Z,0
2017-02-17T03:39:56.818Z,0
2017-02-17T03:40:37.322Z,0
2017-02-17T03:41:19.613Z,0
2017-02-17T03:42:00.086Z,0
2017-02-17T03:42:41.488Z,0
2017-02-17T03:43:22.829Z,0
2017-02-17T03:44:04.909Z,0
2017-02-17T03:44:46.003Z,0
2017-02-17T03:45:27.442Z,0
2017-02-17T03:46:10.411Z,0
2017-02-17T03:46:50.917Z,0
2017-02-17T03:47:32.996Z,0
2017-02-17T03:48:14.827Z,0
2017-02-17T03:48:57.913Z,0
2017-02-17T03:49:38.373Z,0
2017-02-17T03:50:18.825Z,0
2017-02-17T03:51:01.829Z,0
2017-02-17T03:51:43.221Z,0
2017-02-17T03:52:25.320Z,0
2017-02-17T03:53:06.624Z,0
2017-02-17T03:53:48.918Z,0
2017-02-17T03:54:30.124Z,0
2017-02-17T03:55:15.419Z,0
2017-02-17T03:55:58.707Z,0
2017-02-17T03:56:39.734Z,0
2017-02-17T03:57:22.852Z,0
2017-02-17T03:58:04.137Z,0
2017-02-17T03:58:47.003Z,0
2017-02-17T04:01:06.348Z,0
2017-02-17T04:01:48.071Z,0
2017-02-17T04:02:29.504Z,0
2017-02-17T04:03:09.942Z,0
2017-02-17T04:03:52.574Z,0
2017-02-17T04:04:40.685Z,0
2017-02-17T04:05:22.946Z,0
2017-02-17T04:06:04.876Z,0
2017-02-17T04:06:46.601Z,0
2017-02-17T04:07:31.564Z,0
2017-02-17T04:08:15.017Z,0
2017-02-17T04:08:57.199Z,0
2017-02-17T04:09:40.151Z,0
2017-02-17T04:10:22.231Z,0
2017-02-17T04:11:05.165Z,0
2017-02-17T04:11:46.181Z,0
2017-02-17T04:12:26.638Z,0
2017-02-17T04:13:07.170Z,0
2017-02-17T04:13:53.066Z,0
2017-02-17T04:14:35.202Z,0
2017-02-17T04:15:16.232Z,0
2017-02-17T04:15:59.094Z,0
2017-02-17T04:16:42.087Z,0
2017-02-17T04:17:25.266Z,0
2017-02-17T04:18:16.240Z,0
2017-02-17T04:19:00.578Z,0
2017-02-17T04:19:41.669Z,0
2017-02-17T04:20:24.654Z,0
2017-02-17T04:21:09.703Z,0
2017-02-17T04:21:53.578Z,0
2017-02-17T04:22:36.913Z,0
2017-02-17T04:23:21.077Z,0
2017-02-17T04:24:03.479Z,0
2017-02-17T04:24:44.655Z,0
2017-02-17T04:25:25.747Z,0
2017-02-17T04:26:11.593Z,0
2017-02-17T04:26:52.072Z,0
2017-02-17T04:27:34.159Z,0
2017-02-17T04:28:29.118Z,0
2017-02-17T04:29:15.088Z,0
2017-02-17T04:29:56.179Z,0
2017-02-17T04:30:42.079Z,0
2017-02-17T04:31:24.397Z,0
2017-02-17T04:32:10.582Z,0
2017-02-17T04:32:52.664Z,0
2017-02-17T04:33:35.660Z,0
2017-02-17T04:34:20.659Z,0
2017-02-17T04:35:03.755Z,0
2017-02-17T04:35:44.873Z,0
2017-02-17T04:36:26.260Z,0
2017-02-17T04:37:10.160Z,0
2017-02-17T04:37:52.379Z,0
2017-02-17T04:38:33.370Z,0
2017-02-17T04:39:17.237Z,0
2017-02-17T04:40:00.429Z,0
2017-02-17T04:40:42.590Z,0
2017-02-17T04:43:00.668Z,0
2017-02-17T04:43:44.668Z,0
2017-02-17T04:44:26.746Z,0
2017-02-17T04:45:08.020Z,0
2017-02-17T04:45:48.486Z,0
2017-02-17T04:46:29.742Z,0
2017-02-17T04:47:10.750Z,0
2017-02-17T04:47:54.674Z,0
2017-02-17T04:48:35.976Z,0
2017-02-17T04:49:16.443Z,0
2017-02-17T04:49:58.171Z,0
2017-02-17T04:50:39.154Z,0
2017-02-17T04:51:26.172Z,0
2017-02-17T04:52:07.343Z,0
2017-02-17T04:52:50.261Z,0
2017-02-17T04:53:35.172Z,0
2017-02-17T04:54:15.812Z,0
2017-02-17T04:54:57.959Z,0
2017-02-17T04:55:38.443Z,0
2017-02-17T04:56:19.547Z,0
2017-02-17T04:57:02.680Z,0
2017-02-17T04:57:46.754Z,0
2017-02-17T04:58:29.680Z,0
2017-02-17T04:59:11.058Z,0
2017-02-17T04:59:54.167Z,0
2017-02-17T05:00:35.458Z,0
2017-02-17T05:01:20.259Z,0
2017-02-17T05:02:00.743Z,0
2017-02-17T05:02:42.042Z,0
2017-02-17T05:03:23.265Z,0
2017-02-17T05:04:05.343Z,0
2017-02-17T05:04:48.154Z,0
2017-02-17T05:05:29.471Z,0
2017-02-17T05:06:09.940Z,0
2017-02-17T05:06:51.162Z,0
2017-02-17T05:07:31.668Z,0
2017-02-17T05:08:13.687Z,0
2017-02-17T05:08:54.862Z,0
2017-02-17T05:09:36.248Z,0
2017-02-17T05:10:21.477Z,0
2017-02-17T05:11:05.708Z,0
2017-02-17T05:11:47.663Z,0
2017-02-17T05:12:28.667Z,0
2017-02-17T05:13:11.702Z,0
2017-02-17T05:13:52.955Z,0
2017-02-17T05:14:34.343Z,0
2017-02-17T05:15:16.748Z,0
2017-02-17T05:15:57.237Z,0
2017-02-17T05:16:37.743Z,0
2017-02-17T05:17:21.068Z,0
2017-02-17T05:18:01.570Z,0
2017-02-17T05:18:44.586Z,0
2017-02-17T05:19:25.098Z,0
2017-02-17T05:20:07.342Z,0
2017-02-17T05:20:47.906Z,0
2017-02-17T05:21:28.406Z,0
2017-02-17T05:22:08.985Z,0
2017-02-17T05:22:52.750Z,0
2017-02-17T05:23:35.660Z,0
2017-02-17T05:24:18.738Z,0
2017-02-17T05:25:04.687Z,0
2017-02-17T05:25:47.836Z,0
2017-02-17T05:26:29.208Z,0
2017-02-17T05:27:13.287Z,0
2017-02-17T05:27:54.787Z,0
2017-02-17T05:28:38.886Z,0
2017-02-17T05:29:20.259Z,0
2017-02-17T05:30:03.276Z,0
2017-02-17T05:30:44.406Z,0
2017-02-17T05:31:25.875Z,0
2017-02-17T05:32:07.402Z,0
2017-02-17T05:32:55.056Z,0
2017-02-17T05:33:38.797Z,0
2017-02-17T05:34:20.374Z,0
2017-02-17T05:35:05.226Z,0
2017-02-17T05:35:47.610Z,0
2017-02-17T05:36:30.799Z,0
2017-02-17T05:37:11.336Z,0
2017-02-17T05:37:51.867Z,0
2017-02-17T05:38:39.115Z,0
2017-02-17T05:39:22.356Z,0
2017-02-17T05:40:02.845Z,0
2017-02-17T05:40:44.842Z,0
2017-02-17T05:41:29.773Z,0
2017-02-17T05:42:10.239Z,0
2017-02-17T05:42:52.383Z,0
2017-02-17T05:43:33.767Z,0
2017-02-17T05:44:15.775Z,0
2017-02-17T05:44:56.316Z,0
2017-02-17T05:45:36.785Z,0
2017-02-17T05:46:19.178Z,0
2017-02-17T05:46:59.744Z,0
2017-02-17T05:47:40.239Z,0
2017-02-17T05:48:20.693Z,0
2017-02-17T05:49:02.100Z,0
2017-02-17T05:49:44.551Z,0
2017-02-17T05:50:25.747Z,0
2017-02-17T05:51:07.963Z,0
2017-02-17T05:51:49.335Z,0
2017-02-17T05:52:33.173Z,0
2017-02-17T05:53:15.261Z,0
2017-02-17T05:53:59.251Z,0
2017-02-17T05:54:41.471Z,0
2017-02-17T05:55:24.351Z,0
2017-02-17T05:56:06.266Z,0
2017-02-17T05:56:47.756Z,0
2017-02-17T05:59:01.783Z,0
2017-02-17T05:59:45.174Z,0
2017-02-17T06:00:25.651Z,0
2017-02-17T06:02:56.532Z,0
2017-02-17T06:03:40.094Z,0
2017-02-17T06:04:25.035Z,0
2017-02-17T06:05:07.949Z,0
2017-02-17T06:05:49.978Z,0
2017-02-17T06:06:31.153Z,0
2017-02-17T06:07:13.562Z,0
2017-02-17T06:07:54.749Z,0
2017-02-17T06:08:37.453Z,0
2017-02-17T06:09:20.649Z,0
2017-02-17T06:10:02.519Z,0
2017-02-17T06:10:43.723Z,0
2017-02-17T06:11:26.123Z,0
2017-02-17T06:12:08.943Z,0
2017-02-17T06:12:49.420Z,0
2017-02-17T06:13:31.822Z,0
2017-02-17T06:14:12.309Z,0
2017-02-17T06:14:57.430Z,0
2017-02-17T06:15:39.516Z,0
2017-02-17T06:16:25.426Z,0
2017-02-17T06:17:08.487Z,0
2017-02-17T06:17:49.810Z,0
2017-02-17T06:18:34.556Z,0
2017-02-17T06:19:15.056Z,0
2017-02-17T06:19:56.566Z,0
2017-02-17T06:20:39.630Z,0
2017-02-17T06:21:21.032Z,0
2017-02-17T06:22:02.328Z,0
2017-02-17T06:22:44.632Z,0
2017-02-17T06:23:25.881Z,0
2017-02-17T06:24:08.012Z,0
2017-02-17T06:24:50.927Z,0
2017-02-17T06:25:31.436Z,0
2017-02-17T06:26:15.461Z,0
2017-02-17T06:26:58.450Z,0
2017-02-17T06:27:39.753Z,0
2017-02-17T06:28:21.177Z,0
2017-02-17T06:29:06.437Z,0
2017-02-17T06:29:49.433Z,0
2017-02-17T06:30:32.536Z,0
2017-02-17T06:31:14.599Z,0
2017-02-17T06:31:55.717Z,0
2017-02-17T06:32:37.962Z,0
2017-02-17T06:33:20.951Z,0
2017-02-17T06:34:04.003Z,0
2017-02-17T06:34:46.084Z,0
2017-02-17T06:35:30.445Z,0
2017-02-17T06:36:12.561Z,0
2017-02-17T06:36:56.534Z,0
2017-02-17T06:37:37.627Z,0
2017-02-17T06:38:20.945Z,0
2017-02-17T06:39:01.439Z,0
2017-02-17T06:39:49.524Z,0
2017-02-17T06:40:33.451Z,0
2017-02-17T06:41:16.616Z,0
2017-02-17T06:41:57.765Z,0
2017-02-17T06:42:41.020Z,0
2017-02-17T06:45:00.758Z,0
2017-02-17T06:45:47.519Z,0
2017-02-17T06:46:33.189Z,0
2017-02-17T06:47:18.178Z,0
2017-02-17T06:48:11.168Z,0
2017-02-17T06:48:54.205Z,5
2017-02-17T06:49:35.390Z,5
2017-02-17T06:50:16.017Z,5
2017-02-17T06:50:56.460Z,5
2017-02-17T06:51:37.597Z,5
2017-02-17T06:52:21.770Z,5
2017-02-17T06:53:02.263Z,5
2017-02-17T06:53:42.759Z,5
2017-02-17T06:54:23.257Z,5
2017-02-17T06:55:03.746Z,5
2017-02-17T06:55:44.283Z,5
2017-02-17T06:56:24.726Z,5
2017-02-17T06:57:05.211Z,5
2017-02-17T06:57:45.682Z,5
2017-02-17T06:58:26.907Z,5
2017-02-17T06:59:07.425Z,5
2017-02-17T06:59:47.893Z,5
2017-02-17T07:00:28.378Z,10
2017-02-17T07:01:08.909Z,10
2017-02-17T07:01:49.428Z,10
2017-02-17T07:02:29.958Z,10
2017-02-17T07:03:10.487Z,10
2017-02-17T07:03:51.682Z,10
2017-02-17T07:04:32.181Z,10
2017-02-17T07:05:12.649Z,10
2017-02-17T07:05:53.190Z,10
2017-02-17T07:06:35.107Z,10
2017-02-17T07:07:17.208Z,15
2017-02-17T07:07:57.663Z,15
2017-02-17T07:08:39.097Z,15
2017-02-17T07:09:20.944Z,15
2017-02-17T07:10:03.473Z,15
2017-02-17T07:10:44.685Z,15
2017-02-17T07:11:25.333Z,15
2017-02-17T07:12:05.895Z,10
2017-02-17T07:12:46.481Z,10
2017-02-17T07:13:27.141Z,10
2017-02-17T07:14:08.595Z,10
2017-02-17T07:14:49.266Z,10
2017-02-17T07:15:29.792Z,10
2017-02-17T07:16:11.278Z,10
2017-02-17T07:16:51.789Z,10
2017-02-17T07:17:33.593Z,10
2017-02-17T07:18:15.033Z,10
2017-02-17T07:18:55.572Z,10
2017-02-17T07:19:36.116Z,10
2017-02-17T07:20:16.578Z,10
2017-02-17T07:20:57.083Z,10
2017-02-17T07:21:38.290Z,10
2017-02-17T07:22:18.792Z,10
2017-02-17T07:22:59.281Z,10
2017-02-17T07:23:39.832Z,10
2017-02-17T07:24:20.339Z,10
2017-02-17T07:25:00.877Z,10
2017-02-17T07:25:41.357Z,15
2017-02-17T07:26:21.880Z,15
2017-02-17T07:27:02.397Z,15
2017-02-17T07:27:42.903Z,15
2017-02-17T07:28:23.359Z,15
2017-02-17T07:29:03.892Z,15
2017-02-17T07:29:44.379Z,15
2017-02-17T07:30:24.908Z,15
2017-02-17T07:31:05.410Z,15
2017-02-17T07:31:45.938Z,20
2017-02-17T07:32:26.470Z,20
2017-02-17T07:33:06.941Z,20
2017-02-17T07:33:47.436Z,20
2017-02-17T07:34:27.985Z,20
2017-02-17T07:35:08.488Z,20
2017-02-17T07:35:49.060Z,20
2017-02-17T07:36:29.926Z,20
2017-02-17T07:37:10.355Z,20
2017-02-17T07:37:50.812Z,25
2017-02-17T07:38:31.332Z,25
2017-02-17T07:39:11.966Z,25
2017-02-17T07:39:52.541Z,25
2017-02-17T07:40:33.010Z,25
2017-02-17T07:41:13.559Z,30
2017-02-17T07:41:54.163Z,35
2017-02-17T07:42:34.653Z,35
2017-02-17T07:43:15.166Z,40
2017-02-17T07:43:55.741Z,40
2017-02-17T07:44:36.287Z,40
2017-02-17T07:45:17.223Z,40
2017-02-17T07:45:57.710Z,40
2017-02-17T07:46:38.231Z,45
2017-02-17T07:47:18.750Z,50
2017-02-17T07:47:59.298Z,60
2017-02-17T07:48:40.067Z,65
2017-02-17T07:49:20.635Z,65
2017-02-17T07:50:01.493Z,60
2017-02-17T07:50:41.940Z,55
2017-02-17T07:51:22.517Z,55
2017-02-17T07:52:03.071Z,55
2017-02-17T07:52:43.571Z,55
2017-02-17T07:53:24.210Z,45
2017-02-17T07:54:04.674Z,40
2017-02-17T07:54:45.165Z,35
2017-02-17T07:55:25.623Z,30
2017-02-17T07:56:06.106Z,30
2017-02-17T07:56:46.624Z,30
2017-02-17T07:57:27.853Z,30
2017-02-17T07:58:08.693Z,30
2017-02-17T07:58:49.656Z,30
2017-02-17T07:59:31.979Z,35
2017-02-17T08:00:12.244Z,35
2017-02-17T08:00:53.783Z,35
2017-02-17T08:01:34.111Z,40
2017-02-17T08:02:14.855Z,40
2017-02-17T08:02:55.322Z,45
2017-02-17T08:03:35.866Z,50
2017-02-17T08:04:16.393Z,55
2017-02-17T08:04:56.903Z,50
2017-02-17T08:05:37.907Z,50
2017-02-17T08:06:18.416Z,45
2017-02-17T08:06:59.691Z,45
2017-02-17T08:07:40.218Z,40
2017-02-17T08:08:22.098Z,40
2017-02-17T08:09:02.602Z,40
2017-02-17T08:09:43.109Z,45
2017-02-17T08:10:23.673Z,45
2017-02-17T08:11:04.186Z,45
2017-02-17T08:11:44.667Z,45
2017-02-17T08:12:25.205Z,45
2017-02-17T08:13:07.411Z,45
2017-02-17T08:13:48.155Z,45
2017-02-17T08:14:28.713Z,45
2017-02-17T08:15:10.180Z,45
2017-02-17T08:15:51.220Z,40
2017-02-17T08:16:31.842Z,40
2017-02-17T08:17:12.391Z,35
2017-02-17T08:17:52.976Z,35
2017-02-17T08:18:33.438Z,30
2017-02-17T08:19:14.965Z,30
2017-02-17T08:19:55.501Z,30
2017-02-17T08:20:36.081Z,30
2017-02-17T08:21:18.122Z,30
2017-02-17T08:21:58.658Z,30
2017-02-17T08:22:39.214Z,35
2017-02-17T08:23:19.745Z,35
2017-02-17T08:24:00.211Z,35
2017-02-17T08:24:40.685Z,35
2017-02-17T08:25:21.221Z,30
2017-02-17T08:26:01.749Z,30
2017-02-17T08:26:42.199Z,35
2017-02-17T08:27:23.075Z,35
2017-02-17T08:28:03.576Z,35
2017-02-17T08:28:44.081Z,35
2017-02-17T08:29:25.397Z,35
2017-02-17T08:30:05.887Z,35
2017-02-17T08:30:46.391Z,30
2017-02-17T08:31:26.880Z,30
2017-02-17T08:32:08.387Z,30
2017-02-17T08:32:48.890Z,35
2017-02-17T08:33:29.374Z,40
2017-02-17T08:34:09.898Z,40
2017-02-17T08:34:50.389Z,45
2017-02-17T08:35:30.873Z,50
2017-02-17T08:36:11.370Z,50
2017-02-17T08:36:51.889Z,50
2017-02-17T08:37:32.426Z,50
2017-02-17T08:38:12.928Z,55
2017-02-17T08:38:53.469Z,55
2017-02-17T08:39:34.625Z,60
2017-02-17T08:40:14.499Z,55
2017-02-17T08:40:54.981Z,60
2017-02-17T08:41:35.522Z,60
2017-02-17T08:42:16.639Z,60
2017-02-17T08:42:57.158Z,65
2017-02-17T08:43:37.645Z,70
2017-02-17T08:44:18.157Z,75
2017-02-17T08:44:58.625Z,75
2017-02-17T08:45:39.105Z,75
2017-02-17T08:46:19.675Z,80
2017-02-17T08:47:00.702Z,85
2017-02-17T08:47:41.210Z,80
2017-02-17T08:49:03.124Z,75
2017-02-17T08:49:43.637Z,80
2017-02-17T08:50:24.154Z,85
2017-02-17T08:53:13.509Z,80
2017-02-17T08:54:02.088Z,80
2017-02-17T08:56:55.927Z,100
2017-02-17T08:57:44.474Z,110
2017-02-17T08:58:33.523Z,110
2017-02-17T08:59:22.384Z,100
2017-02-17T09:00:10.764Z,95
2017-02-17T09:00:59.523Z,95
2017-02-17T09:01:49.545Z,100
2017-02-17T09:04:17.486Z,80
2017-02-17T09:05:04.950Z,80
2017-02-17T09:05:53.860Z,80
2017-02-17T09:06:43.784Z,80
2017-02-17T09:07:33.680Z,80
2017-02-17T09:08:23.498Z,75
2017-02-17T09:11:15.178Z,100
2017-02-17T09:12:04.176Z,105
2017-02-17T09:12:52.684Z,105
2017-02-17T09:15:22.393Z,140
2017-02-17T09:16:11.676Z,155
2017-02-17T09:17:01.831Z,160
2017-02-17T09:19:48.317Z,195
2017-02-17T09:20:36.937Z,190
2017-02-17T09:21:26.081Z,185
2017-02-17T09:22:14.643Z,170
2017-02-17T09:26:48.164Z,190
2017-02-17T09:27:36.730Z,180
2017-02-17T09:28:26.401Z,165
2017-02-17T09:29:15.012Z,150
2017-02-17T09:30:06.017Z,145
2017-02-17T09:31:01.027Z,140
2017-02-17T09:31:55.760Z,140
2017-02-17T09:32:46.068Z,135
2017-02-17T09:33:41.303Z,135
2017-02-17T09:34:33.365Z,140
2017-02-17T09:35:30.980Z,150
2017-02-17T09:36:16.422Z,155
2017-02-17T09:37:06.207Z,170
2017-02-17T09:37:57.613Z,190
2017-02-17T09:38:46.758Z,190
2017-02-17T09:39:38.389Z,195
2017-02-17T09:40:31.109Z,215
2017-02-17T09:41:17.230Z,215
2017-02-17T09:42:06.933Z,225
2017-02-17T09:42:56.823Z,225
2017-02-17T09:43:46.587Z,215
2017-02-17T09:44:35.309Z,205
2017-02-17T09:45:25.245Z,195
2017-02-17T09:46:15.242Z,195
2017-02-17T09:47:07.296Z,195
2017-02-17T09:48:01.087Z,185
2017-02-17T09:48:51.198Z,180
2017-02-17T09:49:41.671Z,185
2017-02-17T09:50:31.213Z,180
2017-02-17T09:51:10.220Z,190
2017-02-17T09:51:50.855Z,185
2017-02-17T09:52:31.425Z,180
2017-02-17T09:53:11.927Z,185
2017-02-17T09:53:52.910Z,180
2017-02-17T10:07:18.020Z,250
2017-02-17T10:08:14.494Z,260
2017-02-17T10:09:05.633Z,225
2017-02-17T10:09:56.360Z,205
2017-02-17T10:10:49.377Z,195
2017-02-17T10:11:57.665Z,200
2017-02-17T10:12:44.710Z,200
2017-02-17T10:13:28.680Z,200
2017-02-17T10:14:17.061Z,210
2017-02-17T10:15:04.436Z,200
2017-02-17T10:15:53.139Z,195
2017-02-17T10:16:41.521Z,205
2017-02-17T10:17:30.425Z,215
2017-02-17T10:18:18.644Z,250
2017-02-17T10:19:07.063Z,235
2017-02-17T10:19:55.718Z,230
2017-02-17T10:20:44.019Z,245
2017-02-17T10:21:24.241Z,255
2017-02-17T10:22:04.729Z,250
2017-02-17T10:22:45.218Z,240
2017-02-17T10:23:25.693Z,220
2017-02-17T10:24:06.203Z,205
2017-02-17T10:24:46.749Z,190
2017-02-17T10:25:27.268Z,195
2017-02-17T10:26:07.795Z,190
2017-02-17T10:26:48.320Z,180
2017-02-17T10:27:28.794Z,175
2017-02-17T10:28:09.383Z,165
2017-02-17T10:28:49.870Z,165
2017-02-17T10:29:30.352Z,245
2017-02-17T10:30:10.920Z,240
2017-02-17T10:30:51.364Z,270
2017-02-17T10:31:31.883Z,245
2017-02-17T10:32:12.384Z,185
2017-02-17T10:32:52.805Z,230
2017-02-17T10:33:33.361Z,240
2017-02-17T10:34:13.894Z,225
2017-02-17T10:34:54.399Z,245
2017-02-17T10:35:34.888Z,240
2017-02-17T10:36:15.349Z,235
2017-02-17T10:36:55.845Z,240
2017-02-17T10:37:36.423Z,260
2017-02-17T10:38:16.876Z,330
2017-02-17T10:38:58.267Z,275
2017-02-17T10:39:40.798Z,295
2017-02-17T10:40:21.445Z,310
2017-02-17T10:42:41.758Z,155
2017-02-17T10:43:22.145Z,185
2017-02-17T10:44:02.613Z,215
2017-02-17T10:44:43.916Z,210
2017-02-17T10:45:27.070Z,255
2017-02-17T10:46:07.743Z,235
2017-02-17T10:46:48.401Z,225
2017-02-17T10:47:29.874Z,235
2017-02-17T10:48:11.187Z,210
2017-02-17T10:48:52.250Z,215
2017-02-17T10:49:34.760Z,230
2017-02-17T10:50:19.596Z,250
2017-02-17T10:51:01.025Z,245